createdAt,value
2018-09-27T00:00:26.459Z,102688.66
2018-09-27T00:02:55.477Z,102685.53
2018-09-27T00:05:23.979Z,102688.01
2018-09-27T00:07:52.520Z,102686.31
2018-09-27T00:10:21.048Z,102691.29
2018-09-27T00:12:49.561Z,102683.97
2018-09-27T00:15:18.061Z,102687.64
2018-09-27T00:17:46.566Z,102681.25
2018-09-27T00:20:15.070Z,102683.83
2018-09-27T00:22:43.700Z,102679.96
2018-09-27T00:25:12.185Z,102684.34
2018-09-27T00:27:40.700Z,102680.44
2018-09-27T00:30:10.340Z,102680.91
2018-09-27T00:32:38.948Z,102682.72
2018-09-27T00:35:07.586Z,102678.34
2018-09-27T00:37:36.485Z,102685.47
2018-09-27T00:40:05.751Z,102682.72
2018-09-27T00:42:34.313Z,102677.57
2018-09-27T00:45:04.864Z,102674.88
2018-09-27T00:47:33.348Z,102677.60
2018-09-27T00:50:03.100Z,102672.45
2018-09-27T00:52:31.618Z,102676.26
2018-09-27T00:55:00.171Z,102668.22
2018-09-27T00:57:33.207Z,102668.14
2018-09-27T01:00:03.000Z,102664.77
2018-09-27T01:02:31.485Z,102666.72
2018-09-27T01:04:59.980Z,102660.33
2018-09-27T01:07:28.893Z,102671.38
2018-09-27T01:09:57.789Z,102663.76
2018-09-27T01:12:26.268Z,102663.30
2018-09-27T01:14:54.960Z,102660.18
2018-09-27T01:17:23.436Z,102658.98
2018-09-27T01:19:52.056Z,102653.41
2018-09-27T01:22:20.646Z,102650.07
2018-09-27T01:24:49.163Z,102651.90
2018-09-27T01:27:17.991Z,102649.14
2018-09-27T01:29:46.496Z,102649.91
2018-09-27T01:32:15.009Z,102648.34
2018-09-27T01:34:43.567Z,102650.76
2018-09-27T01:37:12.097Z,102649.08
2018-09-27T01:39:40.773Z,102646.77
2018-09-27T01:42:09.316Z,102644.32
2018-09-27T01:44:37.886Z,102639.39
2018-09-27T01:47:06.451Z,102636.30
2018-09-27T01:49:34.964Z,102639.46
2018-09-27T01:52:06.562Z,102640.59
2018-09-27T01:54:35.388Z,102637.48
2018-09-27T01:57:05.718Z,102637.16
2018-09-27T01:59:34.272Z,102635.92
2018-09-27T02:02:05.732Z,102628.34
2018-09-27T02:04:34.380Z,102626.20
2018-09-27T02:07:06.193Z,102625.63
2018-09-27T02:09:34.730Z,102623.88
2018-09-27T02:12:04.561Z,102623.88
2018-09-27T02:14:33.040Z,102622.69
2018-09-27T02:17:02.849Z,102624.56
2018-09-27T02:19:31.427Z,102625.23
2018-09-27T02:21:59.927Z,102625.91
2018-09-27T02:24:28.426Z,102621.93
2018-09-27T02:26:56.905Z,102612.20
2018-09-27T02:29:25.454Z,102609.79
2018-09-27T02:31:53.966Z,102611.72
2018-09-27T02:34:22.493Z,102612.68
2018-09-27T02:36:50.983Z,102610.28
2018-09-27T02:39:19.689Z,102607.80
2018-09-27T02:41:48.188Z,102604.36
2018-09-27T02:44:16.817Z,102599.42
2018-09-27T02:46:45.349Z,102606.50
2018-09-27T02:49:14.889Z,102604.41
2018-09-27T02:51:43.482Z,102608.38
2018-09-27T02:54:12.006Z,102607.41
2018-09-27T02:56:40.525Z,102602.70
2018-09-27T02:59:09.137Z,102604.91
2018-09-27T03:01:37.877Z,102603.43
2018-09-27T03:04:06.441Z,102596.13
2018-09-27T03:06:34.945Z,102598.88
2018-09-27T03:09:09.526Z,102586.83
2018-09-27T03:11:38.046Z,102587.22
2018-09-27T03:14:06.598Z,102584.22
2018-09-27T03:16:35.215Z,102581.31
2018-09-27T03:19:04.773Z,102585.17
2018-09-27T03:21:33.293Z,102580.98
2018-09-27T03:24:04.999Z,102579.47
2018-09-27T03:26:33.531Z,102582.33
2018-09-27T03:29:06.773Z,102583.94
2018-09-27T03:31:35.410Z,102580.92
2018-09-27T03:34:05.284Z,102577.30
2018-09-27T03:36:33.957Z,102571.47
2018-09-27T03:39:05.038Z,102570.34
2018-09-27T03:41:33.556Z,102565.39
2018-09-27T03:44:03.770Z,102565.84
2018-09-27T03:46:32.314Z,102568.41
2018-09-27T03:49:03.327Z,102571.28
2018-09-27T03:51:31.866Z,102569.63
2018-09-27T03:54:00.440Z,102566.73
2018-09-27T03:56:30.837Z,102563.98
2018-09-27T03:59:03.107Z,102565.48
2018-09-27T04:01:31.767Z,102565.48
2018-09-27T04:04:00.284Z,102563.05
2018-09-27T04:06:28.791Z,102563.45
2018-09-27T04:08:57.299Z,102563.25
2018-09-27T04:11:25.833Z,102572.03
2018-09-27T04:13:54.851Z,102562.77
2018-09-27T04:16:23.357Z,102562.69
2018-09-27T04:18:51.857Z,102560.70
2018-09-27T04:21:20.381Z,102564.07
2018-09-27T04:23:48.884Z,102554.55
2018-09-27T04:26:17.413Z,102548.69
2018-09-27T04:28:45.972Z,102554.34
2018-09-27T04:31:14.473Z,102555.48
2018-09-27T04:33:43.111Z,102556.94
2018-09-27T04:36:11.633Z,102557.17
2018-09-27T04:38:40.187Z,102550.25
2018-09-27T04:41:08.698Z,102545.63
2018-09-27T04:43:37.209Z,102542.91
2018-09-27T04:46:06.808Z,102545.44
2018-09-27T04:48:35.326Z,102550.27
2018-09-27T04:51:05.414Z,102551.61
2018-09-27T04:53:33.934Z,102547.00
2018-09-27T04:56:04.067Z,102554.34
2018-09-27T04:58:32.613Z,102545.66
2018-09-27T05:01:03.296Z,102546.05
2018-09-27T05:03:31.904Z,102533.50
2018-09-27T05:06:00.579Z,102538.10
2018-09-27T05:08:29.228Z,102538.34
2018-09-27T05:10:57.756Z,102530.27
2018-09-27T05:13:26.291Z,102536.03
2018-09-27T05:15:54.836Z,102538.53
2018-09-27T05:18:23.987Z,102536.74
2018-09-27T05:20:58.269Z,102531.92
2018-09-27T05:23:26.797Z,102528.37
2018-09-27T05:25:55.288Z,102524.08
2018-09-27T05:28:23.799Z,102525.86
2018-09-27T05:30:52.547Z,102529.20
2018-09-27T05:33:21.046Z,102525.53
2018-09-27T05:35:49.622Z,102528.48
2018-09-27T05:38:18.169Z,102523.23
2018-09-27T05:40:46.855Z,102525.56
2018-09-27T05:43:15.668Z,102519.47
2018-09-27T05:45:44.267Z,102523.13
2018-09-27T05:48:12.809Z,102519.05
2018-09-27T05:50:41.352Z,102518.63
2018-09-27T05:53:09.901Z,102523.14
2018-09-27T05:55:38.768Z,102527.09
2018-09-27T05:58:07.327Z,102526.08
2018-09-27T06:00:36.265Z,102527.64
2018-09-27T06:03:05.568Z,102524.59
2018-09-27T06:05:34.053Z,102521.77
2018-09-27T06:08:03.781Z,102523.43
2018-09-27T06:10:32.316Z,102525.11
2018-09-27T06:13:02.879Z,102531.80
2018-09-27T06:15:31.373Z,102526.67
2018-09-27T06:18:00.189Z,102524.79
2018-09-27T06:20:28.733Z,102528.03
2018-09-27T06:22:57.291Z,102528.22
2018-09-27T06:25:25.820Z,102525.49
2018-09-27T06:27:54.382Z,102520.70
2018-09-27T06:30:22.875Z,102520.38
2018-09-27T06:32:51.576Z,102518.39
2018-09-27T06:35:20.121Z,102516.48
2018-09-27T06:37:48.621Z,102517.98
2018-09-27T06:40:17.632Z,102522.97
2018-09-27T06:42:46.189Z,102521.50
2018-09-27T06:45:14.785Z,102523.20
2018-09-27T06:47:43.293Z,102523.83
2018-09-27T06:50:11.817Z,102524.75
2018-09-27T06:52:40.303Z,102526.05
2018-09-27T06:55:09.063Z,102524.94
2018-09-27T06:57:37.654Z,102520.33
2018-09-27T07:00:06.235Z,102526.02
2018-09-27T07:02:34.833Z,102523.09
2018-09-27T07:05:04.891Z,102520.66
2018-09-27T07:07:33.440Z,102519.20
2018-09-27T07:10:03.996Z,102521.05
2018-09-27T07:12:32.698Z,102513.58
2018-09-27T07:15:03.473Z,102513.77
2018-09-27T07:17:32.239Z,102513.41
2018-09-27T07:20:00.741Z,102518.34
2018-09-27T07:22:29.306Z,102516.54
2018-09-27T07:24:57.855Z,102515.62
2018-09-27T07:27:26.358Z,102515.57
2018-09-27T07:29:54.898Z,102510.55
2018-09-27T07:32:23.443Z,102511.89
2018-09-27T07:34:51.956Z,102513.63
2018-09-27T07:37:20.593Z,102510.95
2018-09-27T07:39:49.144Z,102513.52
2018-09-27T07:42:17.669Z,102509.36
2018-09-27T07:44:46.180Z,102511.05
2018-09-27T07:47:14.701Z,102506.56
2018-09-27T07:49:43.189Z,102501.80
2018-09-27T07:52:12.053Z,102504.67
2018-09-27T07:54:40.930Z,102500.11
2018-09-27T07:57:09.626Z,102503.16
2018-09-27T07:59:39.081Z,102496.25
2018-09-27T08:02:07.634Z,102501.32
2018-09-27T08:04:43.013Z,102495.00
2018-09-27T08:07:11.598Z,102503.41
2018-09-27T08:09:40.211Z,102498.59
2018-09-27T08:12:08.716Z,102493.97
2018-09-27T08:14:37.244Z,102494.92
2018-09-27T08:17:06.065Z,102492.22
2018-09-27T08:19:34.577Z,102498.13
2018-09-27T08:22:04.826Z,102490.28
2018-09-27T08:24:33.345Z,102489.32
2018-09-27T08:27:02.737Z,102491.30
2018-09-27T08:29:31.390Z,102486.63
2018-09-27T08:32:01.220Z,102490.36
2018-09-27T08:34:29.848Z,102489.16
2018-09-27T08:36:58.373Z,102485.16
2018-09-27T08:39:26.985Z,102486.73
2018-09-27T08:41:55.473Z,102482.30
2018-09-27T08:44:24.138Z,102486.03
2018-09-27T08:46:52.672Z,102474.30
2018-09-27T08:49:21.337Z,102474.64
2018-09-27T08:51:49.875Z,102472.48
2018-09-27T08:54:18.386Z,102471.98
2018-09-27T08:56:46.951Z,102460.44
2018-09-27T08:59:15.719Z,102454.42
2018-09-27T09:01:44.349Z,102459.02
2018-09-27T09:04:12.970Z,102458.28
2018-09-27T09:06:41.467Z,102452.23
2018-09-27T09:09:11.822Z,102453.42
2018-09-27T09:11:40.890Z,102446.84
2018-09-27T09:14:10.680Z,102448.27
2018-09-27T09:16:39.665Z,102446.48
2018-09-27T09:19:09.648Z,102438.77
2018-09-27T09:21:38.858Z,102438.83
2018-09-27T09:24:07.341Z,102434.56
2018-09-27T09:26:35.891Z,102436.19
2018-09-27T09:29:05.595Z,102437.90
2018-09-27T09:31:34.165Z,102431.38
2018-09-27T09:34:04.722Z,102425.81
2018-09-27T09:36:33.517Z,102422.11
2018-09-27T09:39:05.201Z,102412.59
2018-09-27T09:41:34.103Z,102411.49
2018-09-27T09:44:03.892Z,102412.02
2018-09-27T09:46:32.685Z,102405.19
2018-09-27T09:49:02.647Z,102390.85
2018-09-27T09:51:31.193Z,102385.52
2018-09-27T09:53:59.715Z,102383.17
2018-09-27T09:56:28.212Z,102380.70
2018-09-27T09:58:58.123Z,102378.19
2018-09-27T10:01:26.641Z,102375.01
2018-09-27T10:03:55.151Z,102376.95
2018-09-27T10:06:23.681Z,102371.03
2018-09-27T10:08:52.206Z,102371.20
2018-09-27T10:11:20.998Z,102364.02
2018-09-27T10:13:49.500Z,102363.95
2018-09-27T10:16:17.995Z,102367.28
2018-09-27T10:18:46.597Z,102362.78
2018-09-27T10:21:15.112Z,102362.88
2018-09-27T10:23:43.629Z,102364.14
2018-09-27T10:26:12.389Z,102356.88
2018-09-27T10:28:41.124Z,102351.44
2018-09-27T10:31:09.965Z,102339.07
2018-09-27T10:33:38.817Z,102343.19
2018-09-27T10:36:07.643Z,102336.52
2018-09-27T10:38:36.354Z,102329.69
2018-09-27T10:41:05.117Z,102324.89
2018-09-27T10:43:33.851Z,102326.20
2018-09-27T10:46:03.394Z,102322.59
2018-09-27T10:48:32.202Z,102324.40
2018-09-27T10:51:00.822Z,102320.02
2018-09-27T10:53:30.495Z,102317.41
2018-09-27T10:55:58.997Z,102311.75
2018-09-27T10:58:27.510Z,102302.09
2018-09-27T11:00:56.045Z,102294.13
2018-09-27T11:03:24.611Z,102292.66
2018-09-27T11:05:53.149Z,102284.83
2018-09-27T11:08:21.649Z,102293.59
2018-09-27T11:10:50.148Z,102290.00
2018-09-27T11:13:18.658Z,102284.08
2018-09-27T11:15:47.425Z,102281.95
2018-09-27T11:18:15.935Z,102276.48
2018-09-27T11:20:44.463Z,102272.41
2018-09-27T11:23:13.000Z,102273.19
2018-09-27T11:25:41.958Z,102270.39
2018-09-27T11:28:10.527Z,102264.63
2018-09-27T11:30:40.804Z,102267.45
2018-09-27T11:33:09.512Z,102264.66
2018-09-27T11:35:37.992Z,102260.65
2018-09-27T11:38:06.577Z,102262.22
2018-09-27T11:40:35.150Z,102261.70
2018-09-27T11:43:05.118Z,102252.77
2018-09-27T11:45:33.640Z,102261.58
2018-09-27T11:48:04.082Z,102251.99
2018-09-27T11:50:32.641Z,102248.69
2018-09-27T11:53:02.797Z,102249.67
2018-09-27T11:55:31.360Z,102244.59
2018-09-27T11:57:59.941Z,102230.95
2018-09-27T12:00:28.542Z,102227.19
2018-09-27T12:02:57.057Z,102225.97
2018-09-27T12:05:25.711Z,102226.47
2018-09-27T12:07:54.212Z,102219.87
2018-09-27T12:10:23.645Z,102218.50
2018-09-27T12:12:52.159Z,102209.39
2018-09-27T12:15:20.684Z,102204.70
2018-09-27T12:17:49.202Z,102198.11
2018-09-27T12:20:17.727Z,102196.64
2018-09-27T12:22:46.242Z,102187.59
2018-09-27T12:25:15.004Z,102183.69
2018-09-27T12:27:43.547Z,102184.74
2018-09-27T12:30:12.038Z,102177.58
2018-09-27T12:32:40.558Z,102182.00
2018-09-27T12:35:09.113Z,102181.12
2018-09-27T12:37:38.026Z,102179.79
2018-09-27T12:40:06.525Z,102165.09
2018-09-27T12:42:35.213Z,102155.67
2018-09-27T12:45:04.616Z,102165.56
2018-09-27T12:47:33.180Z,102160.47
2018-09-27T12:50:02.726Z,102156.80
2018-09-27T12:52:31.376Z,102153.56
2018-09-27T12:54:59.856Z,102151.47
2018-09-27T12:57:28.512Z,102139.54
2018-09-27T12:59:57.065Z,102140.70
2018-09-27T13:02:25.986Z,102136.19
2018-09-27T13:04:54.529Z,102129.98
2018-09-27T13:07:23.061Z,102136.16
2018-09-27T13:09:51.652Z,102129.81
2018-09-27T13:12:20.194Z,102126.55
2018-09-27T13:14:48.782Z,102117.75
2018-09-27T13:17:17.355Z,102118.98
2018-09-27T13:19:45.882Z,102116.35
2018-09-27T13:22:14.478Z,102110.22
2018-09-27T13:24:43.003Z,102109.21
2018-09-27T13:27:11.565Z,102102.96
2018-09-27T13:29:40.138Z,102102.16
2018-09-27T13:32:08.735Z,102086.12
2018-09-27T13:34:37.250Z,102089.38
2018-09-27T13:37:06.238Z,102091.35
2018-09-27T13:39:35.103Z,102092.97
2018-09-27T13:42:06.859Z,102087.84
2018-09-27T13:44:35.369Z,102080.72
2018-09-27T13:47:05.185Z,102084.23
2018-09-27T13:49:33.684Z,102069.35
2018-09-27T13:52:03.917Z,102065.67
2018-09-27T13:54:32.469Z,102073.44
2018-09-27T13:57:03.248Z,102072.08
2018-09-27T13:59:31.857Z,102068.08
2018-09-27T14:02:00.433Z,102053.30
2018-09-27T14:04:29.022Z,102049.07
2018-09-27T14:06:57.561Z,102043.46
2018-09-27T14:09:26.346Z,102040.91
2018-09-27T14:11:54.863Z,102035.67
2018-09-27T14:14:23.389Z,102034.59
2018-09-27T14:16:51.958Z,102035.20
2018-09-27T14:19:20.541Z,102037.97
2018-09-27T14:21:49.084Z,102033.84
2018-09-27T14:24:17.617Z,102029.73
2018-09-27T14:26:46.233Z,102020.58
2018-09-27T14:29:14.794Z,102024.78
2018-09-27T14:31:43.304Z,102021.52
2018-09-27T14:34:11.841Z,102029.41
2018-09-27T14:36:40.513Z,102018.39
2018-09-27T14:39:10.228Z,102010.20
2018-09-27T14:41:39.518Z,102007.78
2018-09-27T14:44:08.372Z,102014.20
2018-09-27T14:46:37.102Z,102002.66
2018-09-27T14:49:06.054Z,102004.64
2018-09-27T14:51:34.630Z,102001.56
2018-09-27T14:54:05.986Z,101994.27
2018-09-27T14:56:34.547Z,101996.56
2018-09-27T14:59:04.884Z,101992.44
2018-09-27T15:01:33.635Z,101992.80
2018-09-27T15:04:03.764Z,101978.83
2018-09-27T15:06:32.351Z,101980.03
2018-09-27T15:09:00.925Z,101981.12
2018-09-27T15:11:29.515Z,101981.67
2018-09-27T15:13:58.513Z,101978.41
2018-09-27T15:16:27.776Z,101972.88
2018-09-27T15:18:56.265Z,101971.58
2018-09-27T15:21:24.802Z,101969.78
2018-09-27T15:23:53.350Z,101957.91
2018-09-27T15:26:21.841Z,101961.59
2018-09-27T15:28:50.569Z,101960.64
2018-09-27T15:31:19.486Z,101961.05
2018-09-27T15:33:48.068Z,101961.28
2018-09-27T15:36:16.626Z,101961.16
2018-09-27T15:38:45.297Z,101948.09
2018-09-27T15:41:13.832Z,101946.47
2018-09-27T15:43:42.371Z,101942.83
2018-09-27T15:46:10.907Z,101938.75
2018-09-27T15:48:39.959Z,101937.09
2018-09-27T15:51:08.892Z,101946.47
2018-09-27T15:53:37.741Z,101931.58
2018-09-27T15:56:06.332Z,101934.61
2018-09-27T15:58:35.140Z,101932.41
2018-09-27T16:01:07.069Z,101926.91
2018-09-27T16:03:35.636Z,101927.18
2018-09-27T16:06:05.667Z,101935.42
2018-09-27T16:08:34.201Z,101933.92
2018-09-27T16:11:03.768Z,101930.52
2018-09-27T16:13:32.328Z,101930.16
2018-09-27T16:16:00.835Z,101929.99
2018-09-27T16:18:29.385Z,101924.48
2018-09-27T16:20:58.308Z,101924.42
2018-09-27T16:23:26.833Z,101923.78
2018-09-27T16:25:55.347Z,101915.41
2018-09-27T16:28:23.975Z,101908.61
2018-09-27T16:30:52.523Z,101904.75
2018-09-27T16:33:21.468Z,101902.09
2018-09-27T16:35:49.989Z,101900.89
2018-09-27T16:38:18.481Z,101902.14
2018-09-27T16:40:47.076Z,101896.75
2018-09-27T16:43:15.777Z,101889.20
2018-09-27T16:45:44.341Z,101891.59
2018-09-27T16:48:12.879Z,101890.73
2018-09-27T16:50:43.554Z,101881.93
2018-09-27T16:53:12.114Z,101886.85
2018-09-27T16:55:40.725Z,101880.68
2018-09-27T16:58:09.686Z,101877.87
2018-09-27T17:00:38.318Z,101877.78
2018-09-27T17:03:06.900Z,101872.86
2018-09-27T17:05:35.685Z,101870.53
2018-09-27T17:08:05.418Z,101869.25
2018-09-27T17:10:34.129Z,101866.08
2018-09-27T17:13:04.425Z,101858.08
2018-09-27T17:15:32.944Z,101864.84
2018-09-27T17:18:03.178Z,101859.20
2018-09-27T17:20:31.908Z,101858.01
2018-09-27T17:23:00.462Z,101858.61
2018-09-27T17:25:29.016Z,101854.24
2018-09-27T17:27:57.587Z,101850.63
2018-09-27T17:30:26.275Z,101847.77
2018-09-27T17:32:54.931Z,101846.08
2018-09-27T17:35:23.469Z,101844.97
2018-09-27T17:37:52.048Z,101848.78
2018-09-27T17:40:20.677Z,101848.55
2018-09-27T17:42:49.170Z,101848.22
2018-09-27T17:45:17.791Z,101852.48
2018-09-27T17:47:46.382Z,101851.55
2018-09-27T17:50:15.087Z,101851.35
2018-09-27T17:52:44.382Z,101851.33
2018-09-27T17:55:12.895Z,101851.85
2018-09-27T17:57:41.466Z,101845.33
2018-09-27T18:00:10.073Z,101854.60
2018-09-27T18:02:38.621Z,101848.66
2018-09-27T18:05:18.815Z,101851.76
2018-09-27T18:07:35.782Z,101855.34
2018-09-27T18:10:05.217Z,101857.59
2018-09-27T18:12:33.796Z,101858.91
2018-09-27T18:15:04.109Z,101853.20
2018-09-27T18:17:32.784Z,101856.41
2018-09-27T18:20:03.859Z,101858.69
2018-09-27T18:22:32.477Z,101856.42
2018-09-27T18:25:00.946Z,101854.30
2018-09-27T18:27:29.665Z,101850.98
2018-09-27T18:29:58.229Z,101848.33
2018-09-27T18:32:26.819Z,101847.80
2018-09-27T18:34:55.361Z,101850.82
2018-09-27T18:37:23.982Z,101861.30
2018-09-27T18:39:52.597Z,101856.60
2018-09-27T18:42:21.239Z,101850.54
2018-09-27T18:44:49.815Z,101853.76
2018-09-27T18:47:18.381Z,101855.65
2018-09-27T18:49:46.998Z,101858.91
2018-09-27T18:52:15.735Z,101859.34
2018-09-27T18:54:44.325Z,101856.67
2018-09-27T18:57:12.891Z,101850.37
2018-09-27T18:59:41.476Z,101846.42
2018-09-27T19:02:10.038Z,101845.11
2018-09-27T19:04:38.645Z,101856.58
2018-09-27T19:07:07.570Z,101854.64
2018-09-27T19:09:36.147Z,101856.74
2018-09-27T19:12:06.152Z,101859.11
2018-09-27T19:14:35.535Z,101860.34
2018-09-27T19:17:07.577Z,101856.41
2018-09-27T19:19:36.273Z,101859.20
2018-09-27T19:22:06.279Z,101859.34
2018-09-27T19:24:34.859Z,101858.91
2018-09-27T19:27:05.728Z,101855.70
2018-09-27T19:29:34.383Z,101859.08
2018-09-27T19:32:05.214Z,101849.72
2018-09-27T19:34:34.263Z,101851.77
2018-09-27T19:37:04.569Z,101841.86
2018-09-27T19:39:33.364Z,101840.45
2018-09-27T19:42:04.284Z,101847.23
2018-09-27T19:44:32.876Z,101852.20
2018-09-27T19:47:02.874Z,101852.30
2018-09-27T19:49:31.745Z,101855.16
2018-09-27T19:52:00.422Z,101853.73
2018-09-27T19:54:29.204Z,101846.91
2018-09-27T19:56:57.844Z,101848.13
2018-09-27T19:59:26.400Z,101851.66
2018-09-27T20:01:55.369Z,101853.49
2018-09-27T20:04:24.229Z,101850.40
2018-09-27T20:06:53.196Z,101861.89
2018-09-27T20:09:21.804Z,101854.53
2018-09-27T20:11:51.035Z,101854.42
2018-09-27T20:14:19.903Z,101853.09
2018-09-27T20:16:53.647Z,101850.58
2018-09-27T20:19:27.613Z,101853.02
2018-09-27T20:21:59.458Z,101854.06
2018-09-27T20:24:28.165Z,101859.08
2018-09-27T20:27:04.145Z,101858.59
2018-09-27T20:29:36.154Z,101850.36
2018-09-27T20:32:06.030Z,101847.63
2018-09-27T20:34:36.265Z,101854.08
2018-09-27T20:37:05.305Z,101850.15
2018-09-27T20:39:35.451Z,101848.90
2018-09-27T20:42:13.687Z,101835.52
2018-09-27T20:44:42.249Z,101844.27
2018-09-27T20:47:11.482Z,101838.81
2018-09-27T20:49:43.030Z,101842.67
2018-09-27T20:52:11.722Z,101841.34
2018-09-27T20:54:40.240Z,101842.55
2018-09-27T20:57:09.143Z,101835.62
2018-09-27T20:59:38.882Z,101840.48
2018-09-27T21:02:10.884Z,101840.37
2018-09-27T21:04:39.807Z,101854.58
2018-09-27T21:07:08.345Z,101848.77
2018-09-27T21:09:36.882Z,101839.79
2018-09-27T21:12:05.453Z,101840.95
2018-09-27T21:14:33.969Z,101840.73
2018-09-27T21:17:07.298Z,101823.54
2018-09-27T21:19:35.882Z,101822.38
2018-09-27T21:22:09.618Z,101819.23
2018-09-27T21:24:38.158Z,101820.58
2018-09-27T21:27:06.877Z,101805.39
2018-09-27T21:29:40.894Z,101801.73
2018-09-27T21:32:09.521Z,101808.62
2018-09-27T21:34:38.720Z,101811.81
2018-09-27T21:37:07.248Z,101809.22
2018-09-27T21:39:35.798Z,101805.97
2018-09-27T21:42:05.211Z,101799.52
2018-09-27T21:44:34.047Z,101803.22
2018-09-27T21:47:09.784Z,101803.24
2018-09-27T21:49:38.312Z,101805.84
2018-09-27T21:52:06.891Z,101793.72
2018-09-27T21:54:35.534Z,101786.08
2018-09-27T21:57:07.054Z,101787.03
2018-09-27T21:59:35.554Z,101788.95
2018-09-27T22:02:05.647Z,101780.88
2018-09-27T22:04:38.261Z,101778.97
2018-09-27T22:07:07.053Z,101762.22
2018-09-27T22:09:39.469Z,101782.80
2018-09-27T22:12:08.068Z,101810.17
2018-09-27T22:14:36.596Z,101811.28
2018-09-27T22:17:05.174Z,101798.05
2018-09-27T22:19:33.859Z,101808.65
2018-09-27T22:22:04.135Z,101806.78
2018-09-27T22:24:32.933Z,101797.91
2018-09-27T22:27:02.874Z,101803.72
2018-09-27T22:29:31.374Z,101798.86
2018-09-27T22:31:59.915Z,101795.34
2018-09-27T22:34:28.448Z,101796.80
2018-09-27T22:36:57.446Z,101798.78
2018-09-27T22:39:25.946Z,101800.39
2018-09-27T22:41:54.587Z,101802.66
2018-09-27T22:44:23.083Z,101798.12
2018-09-27T22:46:51.668Z,101807.72
2018-09-27T22:49:20.207Z,101800.27
2018-09-27T22:51:48.703Z,101803.64
2018-09-27T22:54:17.225Z,101801.66
2018-09-27T22:56:45.743Z,101799.52
2018-09-27T22:59:14.268Z,101793.19
2018-09-27T23:01:42.902Z,101787.88
2018-09-27T23:04:11.461Z,101790.55
2018-09-27T23:06:40.302Z,101784.22
2018-09-27T23:09:08.942Z,101783.14
2018-09-27T23:11:37.481Z,101781.18
2018-09-27T23:14:06.393Z,101815.69
2018-09-27T23:16:34.940Z,101834.36
2018-09-27T23:19:05.280Z,101813.84
2018-09-27T23:21:33.876Z,101822.30
2018-09-27T23:24:04.160Z,101822.19
2018-09-27T23:26:32.680Z,101798.52
2018-09-27T23:29:02.768Z,101813.13
2018-09-27T23:31:31.330Z,101807.41
2018-09-27T23:34:00.094Z,101802.80
2018-09-27T23:36:28.683Z,101809.45
2018-09-27T23:38:59.344Z,101805.00
2018-09-27T23:41:27.861Z,101795.80
2018-09-27T23:43:56.370Z,101798.52
2018-09-27T23:46:24.941Z,101797.58
2018-09-27T23:48:53.463Z,101799.45
2018-09-27T23:51:21.989Z,101809.06
2018-09-27T23:53:50.523Z,101810.31
2018-09-27T23:56:19.070Z,101810.20
2018-09-27T23:58:47.560Z,101814.06
